createdAt,value
2017-12-03T00:00:45.027Z,101681.42
2017-12-03T00:01:47.497Z,101683.09
2017-12-03T00:02:50.004Z,101677.09
2017-12-03T00:03:52.481Z,101684.02
2017-12-03T00:04:54.956Z,101684.72
2017-12-03T00:05:57.427Z,101681.22
2017-12-03T00:06:59.908Z,101676.99
2017-12-03T00:08:02.394Z,101673.84
2017-12-03T00:09:04.885Z,101675.81
2017-12-03T00:10:07.346Z,101676.90
2017-12-03T00:11:09.829Z,101679.39
2017-12-03T00:12:12.305Z,101673.96
2017-12-03T00:13:14.798Z,101677.86
2017-12-03T00:14:17.272Z,101675.91
2017-12-03T00:15:19.748Z,101679.77
2017-12-03T00:16:22.206Z,101680.85
2017-12-03T00:17:24.662Z,101676.19
2017-12-03T00:18:27.160Z,101676.66
2017-12-03T00:19:29.650Z,101677.11
2017-12-03T00:20:32.110Z,101673.84
2017-12-03T00:21:34.587Z,101671.83
2017-12-03T00:22:37.060Z,101674.55
2017-12-03T00:23:39.559Z,101670.80
2017-12-03T00:24:42.023Z,101673.41
2017-12-03T00:25:44.490Z,101673.34
2017-12-03T00:26:46.950Z,101670.72
2017-12-03T00:27:49.425Z,101670.72
2017-12-03T00:28:51.906Z,101661.81
2017-12-03T00:29:54.393Z,101665.83
2017-12-03T00:30:56.885Z,101668.28
2017-12-03T00:31:59.359Z,101666.28
2017-12-03T00:33:01.841Z,101664.31
2017-12-03T00:34:04.360Z,101670.64
2017-12-03T00:35:06.965Z,101665.62
2017-12-03T00:36:09.434Z,101658.92
2017-12-03T00:37:11.903Z,101659.91
2017-12-03T00:38:14.393Z,101659.86
2017-12-03T00:39:16.878Z,101657.27
2017-12-03T00:40:19.415Z,101660.37
2017-12-03T00:41:21.892Z,101666.05
2017-12-03T00:42:24.378Z,101652.16
2017-12-03T00:43:26.847Z,101661.20
2017-12-03T00:44:29.346Z,101654.83
2017-12-03T00:45:31.818Z,101658.05
2017-12-03T00:46:34.297Z,101660.02
2017-12-03T00:47:36.762Z,101654.99
2017-12-03T00:48:39.222Z,101647.50
2017-12-03T00:49:41.694Z,101652.67
2017-12-03T00:50:44.169Z,101652.11
2017-12-03T00:51:46.655Z,101643.44
2017-12-03T00:52:49.145Z,101643.78
2017-12-03T00:53:51.670Z,101642.38
2017-12-03T00:54:54.146Z,101645.31
2017-12-03T00:55:56.624Z,101642.42
2017-12-03T00:56:59.097Z,101638.24
2017-12-03T00:58:01.550Z,101643.30
2017-12-03T00:59:04.028Z,101641.42
2017-12-03T01:00:06.529Z,101644.44
2017-12-03T01:01:08.995Z,101639.82
2017-12-03T01:02:11.455Z,101640.73
2017-12-03T01:03:13.925Z,101643.67
2017-12-03T01:04:16.402Z,101641.72
2017-12-03T01:05:18.886Z,101638.34
2017-12-03T01:06:21.345Z,101641.13
2017-12-03T01:07:23.812Z,101638.98
2017-12-03T01:08:26.290Z,101637.15
2017-12-03T01:09:28.758Z,101640.20
2017-12-03T01:10:31.272Z,101633.28
2017-12-03T01:11:33.738Z,101628.92
2017-12-03T01:12:36.213Z,101629.91
2017-12-03T01:13:38.689Z,101629.63
2017-12-03T01:14:41.161Z,101631.36
2017-12-03T01:15:43.665Z,101628.16
2017-12-03T01:16:46.137Z,101631.59
2017-12-03T01:17:48.620Z,101630.22
2017-12-03T01:18:51.105Z,101626.64
2017-12-03T01:19:53.586Z,101627.18
2017-12-03T01:20:56.075Z,101633.15
2017-12-03T01:21:58.535Z,101626.97
2017-12-03T01:23:00.996Z,101635.30
2017-12-03T01:24:03.473Z,101631.13
2017-12-03T01:25:05.953Z,101628.47
2017-12-03T01:26:08.450Z,101628.73
2017-12-03T01:27:10.920Z,101625.88
2017-12-03T01:28:13.395Z,101628.69
2017-12-03T01:29:15.872Z,101627.07
2017-12-03T01:30:18.345Z,101622.35
2017-12-03T01:31:20.823Z,101623.02
2017-12-03T01:32:23.287Z,101622.35
2017-12-03T01:33:25.746Z,101618.70
2017-12-03T01:34:28.221Z,101618.91
2017-12-03T01:35:30.699Z,101621.90
2017-12-03T01:36:33.206Z,101617.89
2017-12-03T01:37:35.713Z,101622.75
2017-12-03T01:38:38.165Z,101622.70
2017-12-03T01:39:40.623Z,101617.63
2017-12-03T01:40:43.106Z,101624.33
2017-12-03T01:41:45.604Z,101620.70
2017-12-03T01:42:48.080Z,101625.98
2017-12-03T01:43:50.538Z,101627.70
2017-12-03T01:44:53.013Z,101626.63
2017-12-03T01:45:55.492Z,101631.10
2017-12-03T01:46:57.973Z,101629.83
2017-12-03T01:48:00.549Z,101627.10
2017-12-03T01:49:03.006Z,101624.04
2017-12-03T01:50:05.472Z,101623.89
2017-12-03T01:51:07.960Z,101620.13
2017-12-03T01:52:10.450Z,101622.13
2017-12-03T01:53:12.911Z,101611.08
2017-12-03T01:54:15.392Z,101610.86
2017-12-03T01:55:17.854Z,101615.67
2017-12-03T01:56:20.330Z,101618.06
2017-12-03T01:57:22.814Z,101616.15
2017-12-03T01:58:25.292Z,101617.24
2017-12-03T01:59:27.767Z,101614.30
2017-12-03T02:00:30.250Z,101614.35
2017-12-03T02:01:32.725Z,101617.06
2017-12-03T02:02:35.198Z,101614.99
2017-12-03T02:03:37.673Z,101617.84
2017-12-03T02:04:40.137Z,101616.41
2017-12-03T02:05:42.614Z,101615.50
2017-12-03T02:06:45.139Z,101616.25
2017-12-03T02:07:47.631Z,101615.59
2017-12-03T02:08:50.148Z,101619.09
2017-12-03T02:09:52.633Z,101621.73
2017-12-03T02:10:55.129Z,101615.88
2017-12-03T02:11:57.595Z,101621.32
2017-12-03T02:13:00.093Z,101619.89
2017-12-03T02:14:02.560Z,101623.05
2017-12-03T02:15:05.019Z,101618.09
2017-12-03T02:16:07.492Z,101617.56
2017-12-03T02:17:09.959Z,101621.36
2017-12-03T02:18:12.443Z,101621.50
2017-12-03T02:19:14.906Z,101621.20
2017-12-03T02:20:17.367Z,101618.45
2017-12-03T02:21:19.838Z,101623.73
2017-12-03T02:22:22.317Z,101617.84
2017-12-03T02:23:24.863Z,101618.14
2017-12-03T02:24:27.384Z,101612.88
2017-12-03T02:25:29.860Z,101612.33
2017-12-03T02:26:32.332Z,101613.80
2017-12-03T02:27:34.826Z,101609.45
2017-12-03T02:28:37.315Z,101605.34
2017-12-03T02:29:39.794Z,101606.75
2017-12-03T02:30:42.254Z,101604.55
2017-12-03T02:31:44.723Z,101604.00
2017-12-03T02:32:47.201Z,101605.03
2017-12-03T02:33:49.701Z,101594.05
2017-12-03T02:34:52.181Z,101593.39
2017-12-03T02:35:54.663Z,101590.20
2017-12-03T02:36:57.126Z,101586.97
2017-12-03T02:37:59.600Z,101582.55
2017-12-03T02:39:02.088Z,101585.50
2017-12-03T02:40:04.551Z,101581.81
2017-12-03T02:41:07.032Z,101581.05
2017-12-03T02:42:09.513Z,101585.95
2017-12-03T02:43:11.988Z,101584.92
2017-12-03T02:44:14.468Z,101580.61
2017-12-03T02:45:16.934Z,101579.86
2017-12-03T02:46:19.417Z,101580.88
2017-12-03T02:47:21.894Z,101576.73
2017-12-03T02:48:24.382Z,101572.52
2017-12-03T02:49:26.878Z,101576.97
2017-12-03T02:50:29.376Z,101584.31
2017-12-03T02:51:31.934Z,101580.70
2017-12-03T02:52:34.403Z,101579.31
2017-12-03T02:53:36.885Z,101582.46
2017-12-03T02:54:39.382Z,101574.41
2017-12-03T02:55:41.855Z,101575.20
2017-12-03T02:56:44.335Z,101581.88
2017-12-03T02:57:46.809Z,101579.18
2017-12-03T02:58:49.272Z,101580.73
2017-12-03T02:59:51.750Z,101580.09
2017-12-03T03:00:54.242Z,101578.09
2017-12-03T03:01:56.725Z,101573.88
2017-12-03T03:02:59.199Z,101577.62
2017-12-03T03:04:01.662Z,101575.56
2017-12-03T03:05:04.142Z,101575.48
2017-12-03T03:06:06.648Z,101573.02
2017-12-03T03:07:09.130Z,101572.90
2017-12-03T03:09:13.408Z,101571.98
2017-12-03T03:10:15.899Z,101574.96
2017-12-03T03:11:18.420Z,101569.07
2017-12-03T03:12:20.880Z,101574.55
2017-12-03T03:13:23.384Z,101570.03
2017-12-03T03:14:25.953Z,101569.85
2017-12-03T03:15:28.438Z,101573.15
2017-12-03T03:16:31.320Z,101568.60
2017-12-03T03:17:33.791Z,101576.81
2017-12-03T03:18:36.270Z,101571.19
2017-12-03T03:20:40.507Z,101573.88
2017-12-03T03:21:42.969Z,101573.16
2017-12-03T03:22:45.449Z,101577.53
2017-12-03T03:23:47.912Z,101567.41
2017-12-03T03:24:50.374Z,101564.47
2017-12-03T03:25:52.871Z,101568.66
2017-12-03T03:26:55.353Z,101565.80
2017-12-03T03:27:57.814Z,101568.70
2017-12-03T03:29:00.294Z,101560.27
2017-12-03T03:30:02.770Z,101558.80
2017-12-03T03:31:05.282Z,101557.95
2017-12-03T03:32:07.774Z,101553.31
2017-12-03T03:33:10.249Z,101559.17
2017-12-03T03:34:12.720Z,101555.71
2017-12-03T03:35:15.201Z,101552.97
2017-12-03T03:36:17.697Z,101542.98
2017-12-03T03:37:20.167Z,101552.49
2017-12-03T03:38:22.634Z,101553.52
2017-12-03T03:39:25.115Z,101555.08
2017-12-03T03:40:27.612Z,101558.20
2017-12-03T03:41:30.112Z,101554.98
2017-12-03T03:42:32.589Z,101553.72
2017-12-03T03:43:35.050Z,101553.05
2017-12-03T03:44:37.552Z,101554.56
2017-12-03T03:45:40.034Z,101554.78
2017-12-03T03:46:42.541Z,101555.81
2017-12-03T03:47:45.017Z,101552.71
2017-12-03T03:48:47.475Z,101553.37
2017-12-03T03:49:49.935Z,101553.14
2017-12-03T03:50:52.403Z,101551.11
2017-12-03T03:51:54.903Z,101553.38
2017-12-03T03:52:57.358Z,101548.95
2017-12-03T03:53:59.816Z,101553.34
2017-12-03T03:55:02.302Z,101551.13
2017-12-03T03:56:04.779Z,101554.84
2017-12-03T03:57:07.266Z,101552.55
2017-12-03T03:58:09.742Z,101551.30
2017-12-03T04:00:13.984Z,101554.95
2017-12-03T04:01:16.468Z,101550.28
2017-12-03T04:02:18.946Z,101555.05
2017-12-03T04:03:21.406Z,101544.23
2017-12-03T04:04:23.885Z,101556.03
2017-12-03T04:05:26.338Z,101558.20
2017-12-03T04:06:28.812Z,101550.46
2017-12-03T04:07:31.296Z,101546.65
2017-12-03T04:08:33.788Z,101544.58
2017-12-03T04:09:36.266Z,101544.90
2017-12-03T04:10:38.735Z,101552.77
2017-12-03T04:11:41.200Z,101551.72
2017-12-03T04:12:43.751Z,101544.02
2017-12-03T04:13:46.291Z,101550.84
2017-12-03T04:14:48.778Z,101553.78
2017-12-03T04:15:51.249Z,101553.86
2017-12-03T04:16:53.729Z,101551.08
2017-12-03T04:17:58.634Z,101555.35
2017-12-03T04:19:01.098Z,101554.23
2017-12-03T04:20:03.559Z,101548.77
2017-12-03T04:21:06.027Z,101552.14
2017-12-03T04:22:08.487Z,101555.35
2017-12-03T04:23:11.002Z,101554.34
2017-12-03T04:24:13.481Z,101547.78
2017-12-03T04:25:15.958Z,101544.09
2017-12-03T04:26:18.418Z,101556.53
2017-12-03T04:27:20.899Z,101545.70
2017-12-03T04:28:23.383Z,101549.16
2017-12-03T04:29:25.855Z,101548.30
2017-12-03T04:30:28.357Z,101545.01
2017-12-03T04:31:30.818Z,101543.33
2017-12-03T04:32:33.300Z,101549.13
2017-12-03T04:33:35.785Z,101549.18
2017-12-03T04:34:38.304Z,101548.43
2017-12-03T04:35:40.775Z,101549.41
2017-12-03T04:36:43.235Z,101554.25
2017-12-03T04:37:45.713Z,101551.41
2017-12-03T04:38:48.219Z,101551.53
2017-12-03T04:39:50.702Z,101550.45
2017-12-03T04:40:53.162Z,101552.52
2017-12-03T04:41:55.622Z,101553.25
2017-12-03T04:42:58.098Z,101551.27
2017-12-03T04:44:00.599Z,101553.80
2017-12-03T04:45:03.080Z,101549.09
2017-12-03T04:46:05.564Z,101552.21
2017-12-03T04:47:08.049Z,101551.34
2017-12-03T04:48:10.519Z,101550.32
2017-12-03T04:49:13.012Z,101553.13
2017-12-03T04:50:15.495Z,101552.77
2017-12-03T04:51:17.980Z,101550.80
2017-12-03T04:52:20.452Z,101549.98
2017-12-03T04:53:22.935Z,101553.42
2017-12-03T04:54:25.448Z,101548.14
2017-12-03T04:55:27.925Z,101547.84
2017-12-03T04:56:30.417Z,101542.77
2017-12-03T04:57:32.912Z,101549.91
2017-12-03T04:58:35.400Z,101548.66
2017-12-03T04:59:37.902Z,101545.59
2017-12-03T05:00:40.377Z,101551.81
2017-12-03T05:01:42.858Z,101550.03
2017-12-03T05:02:45.348Z,101545.72
2017-12-03T05:03:47.864Z,101544.20
2017-12-03T05:04:50.356Z,101545.63
2017-12-03T05:05:52.841Z,101548.52
2017-12-03T05:06:55.300Z,101545.97
2017-12-03T05:07:57.778Z,101548.64
2017-12-03T05:09:00.273Z,101540.14
2017-12-03T05:10:02.781Z,101541.19
2017-12-03T05:11:05.258Z,101545.73
2017-12-03T05:12:07.733Z,101543.14
2017-12-03T05:13:10.213Z,101546.20
2017-12-03T05:14:12.718Z,101543.91
2017-12-03T05:15:15.214Z,101540.32
2017-12-03T05:16:17.701Z,101540.42
2017-12-03T05:17:20.167Z,101542.53
2017-12-03T05:18:22.642Z,101540.09
2017-12-03T05:19:25.115Z,101540.03
2017-12-03T05:20:27.587Z,101539.23
2017-12-03T05:21:30.060Z,101537.23
2017-12-03T05:22:32.539Z,101539.68
2017-12-03T05:23:35.008Z,101532.33
2017-12-03T05:24:37.479Z,101535.45
2017-12-03T05:25:39.981Z,101534.68
2017-12-03T05:26:42.457Z,101531.02
2017-12-03T05:27:44.937Z,101537.04
2017-12-03T05:28:47.599Z,101535.23
2017-12-03T05:29:50.062Z,101531.91
2017-12-03T05:30:52.564Z,101531.23
2017-12-03T05:31:55.023Z,101523.69
2017-12-03T05:32:57.478Z,101525.02
2017-12-03T05:33:59.987Z,101525.57
2017-12-03T05:35:02.460Z,101523.14
2017-12-03T05:36:04.997Z,101523.50
2017-12-03T05:37:07.477Z,101523.95
2017-12-03T05:38:09.959Z,101515.79
2017-12-03T05:39:12.435Z,101522.25
2017-12-03T05:40:14.912Z,101519.61
2017-12-03T05:41:17.398Z,101520.20
2017-12-03T05:42:19.855Z,101522.21
2017-12-03T05:43:22.314Z,101519.83
2017-12-03T05:44:24.788Z,101523.80
2017-12-03T05:45:27.246Z,101514.70
2017-12-03T05:46:29.745Z,101519.88
2017-12-03T05:47:32.224Z,101524.89
2017-12-03T05:48:34.686Z,101528.02
2017-12-03T05:49:37.184Z,101524.71
2017-12-03T05:50:39.651Z,101519.91
2017-12-03T05:51:42.130Z,101517.91
2017-12-03T05:52:44.602Z,101514.94
2017-12-03T05:53:47.081Z,101518.06
2017-12-03T05:54:49.556Z,101515.13
2017-12-03T05:55:52.028Z,101517.02
2017-12-03T05:56:54.524Z,101515.09
2017-12-03T05:57:56.993Z,101511.98
2017-12-03T05:58:59.469Z,101510.64
2017-12-03T06:00:01.951Z,101514.85
2017-12-03T06:01:04.415Z,101514.16
2017-12-03T06:02:06.908Z,101514.87
2017-12-03T06:03:09.390Z,101510.16
2017-12-03T06:04:11.850Z,101509.13
2017-12-03T06:05:14.325Z,101507.04
2017-12-03T06:06:16.808Z,101501.23
2017-12-03T06:07:19.309Z,101507.27
2017-12-03T06:08:21.783Z,101503.60
2017-12-03T06:09:24.256Z,101503.67
2017-12-03T06:10:26.737Z,101505.05
2017-12-03T06:11:29.236Z,101502.25
2017-12-03T06:12:31.723Z,101517.58
2017-12-03T06:13:34.182Z,101504.86
2017-12-03T06:14:36.657Z,101508.89
2017-12-03T06:15:39.141Z,101509.91
2017-12-03T06:16:41.601Z,101513.06
2017-12-03T06:17:44.097Z,101510.50
2017-12-03T06:18:46.586Z,101507.56
2017-12-03T06:19:49.064Z,101503.47
2017-12-03T06:20:51.536Z,101506.52
2017-12-03T06:21:54.064Z,101503.55
2017-12-03T06:22:56.541Z,101507.82
2017-12-03T06:23:58.999Z,101505.83
2017-12-03T06:25:01.505Z,101502.67
2017-12-03T06:26:03.986Z,101504.87
2017-12-03T06:27:06.465Z,101507.23
2017-12-03T06:28:08.969Z,101503.12
2017-12-03T06:29:11.446Z,101509.83
2017-12-03T06:30:13.929Z,101513.46
2017-12-03T06:31:16.409Z,101520.50
2017-12-03T06:32:18.885Z,101511.95
2017-12-03T06:33:21.450Z,101517.23
2017-12-03T06:34:23.923Z,101511.45
2017-12-03T06:35:26.431Z,101514.16
2017-12-03T06:36:28.909Z,101515.83
2017-12-03T06:37:31.384Z,101517.85
2017-12-03T06:38:33.901Z,101516.27
2017-12-03T06:39:36.380Z,101517.50
2017-12-03T06:40:38.950Z,101510.63
2017-12-03T06:41:41.427Z,101510.12
2017-12-03T06:42:43.913Z,101514.23
2017-12-03T06:43:46.415Z,101511.81
2017-12-03T06:44:48.893Z,101509.57
2017-12-03T06:45:51.409Z,101517.40
2017-12-03T06:46:53.900Z,101512.70
2017-12-03T06:47:56.377Z,101512.09
2017-12-03T06:48:58.894Z,101517.91
2017-12-03T06:50:01.363Z,101516.92
2017-12-03T06:51:03.828Z,101521.61
2017-12-03T06:52:06.323Z,101515.98
2017-12-03T06:53:08.782Z,101516.40
2017-12-03T06:54:11.296Z,101516.25
2017-12-03T06:55:13.782Z,101514.83
2017-12-03T06:56:16.269Z,101518.22
2017-12-03T06:57:18.735Z,101515.90
2017-12-03T06:58:21.202Z,101523.08
2017-12-03T06:59:23.687Z,101532.27
2017-12-03T07:00:26.164Z,101526.64
2017-12-03T07:01:28.657Z,101526.47
2017-12-03T07:02:31.114Z,101530.77
2017-12-03T07:03:33.630Z,101532.31
2017-12-03T07:04:36.112Z,101533.86
2017-12-03T07:05:38.596Z,101534.00
2017-12-03T07:06:41.248Z,101536.69
2017-12-03T07:07:44.199Z,101536.41
2017-12-03T07:08:46.688Z,101537.66
2017-12-03T07:09:49.168Z,101534.64
2017-12-03T07:10:52.177Z,101539.41
2017-12-03T07:11:54.650Z,101541.75
2017-12-03T07:12:57.134Z,101540.80
2017-12-03T07:13:59.639Z,101543.84
2017-12-03T07:15:02.125Z,101542.31
2017-12-03T07:16:04.616Z,101546.19
2017-12-03T07:17:07.079Z,101538.09
2017-12-03T07:18:09.566Z,101540.09
2017-12-03T07:19:12.041Z,101547.61
2017-12-03T07:20:14.524Z,101546.22
2017-12-03T07:21:16.989Z,101544.63
2017-12-03T07:22:19.462Z,101546.70
2017-12-03T07:23:21.943Z,101545.13
2017-12-03T07:24:24.456Z,101540.54
2017-12-03T07:25:26.919Z,101544.81
2017-12-03T07:26:29.387Z,101541.33
2017-12-03T07:27:31.902Z,101542.08
2017-12-03T07:28:34.723Z,101537.22
2017-12-03T07:29:37.214Z,101536.86
2017-12-03T07:30:39.788Z,101540.72
2017-12-03T07:31:42.281Z,101532.97
2017-12-03T07:32:44.740Z,101534.50
2017-12-03T07:33:47.212Z,101536.09
2017-12-03T07:34:49.685Z,101531.31
2017-12-03T07:35:52.292Z,101533.00
2017-12-03T07:36:54.768Z,101529.52
2017-12-03T07:37:57.253Z,101526.08
2017-12-03T07:38:59.740Z,101530.05
2017-12-03T07:40:02.243Z,101524.30
2017-12-03T07:41:04.940Z,101529.48
2017-12-03T07:42:07.605Z,101529.02
2017-12-03T07:43:10.085Z,101524.13
2017-12-03T07:44:12.555Z,101526.21
2017-12-03T07:45:15.027Z,101524.25
2017-12-03T07:46:17.512Z,101519.06
2017-12-03T07:47:19.992Z,101522.02
2017-12-03T07:48:22.452Z,101525.88
2017-12-03T07:49:24.944Z,101523.14
2017-12-03T07:50:27.421Z,101535.72
2017-12-03T07:51:29.891Z,101527.02
2017-12-03T07:52:32.368Z,101527.94
2017-12-03T07:53:34.836Z,101528.70
2017-12-03T07:54:37.333Z,101532.42
2017-12-03T07:55:39.835Z,101531.00
2017-12-03T07:56:42.302Z,101524.94
2017-12-03T07:57:44.765Z,101522.43
2017-12-03T07:58:47.246Z,101522.64
2017-12-03T07:59:49.706Z,101527.55
2017-12-03T08:00:52.184Z,101524.78
2017-12-03T08:01:54.662Z,101524.05
2017-12-03T08:02:57.123Z,101525.19
2017-12-03T08:03:59.618Z,101525.19
2017-12-03T08:05:02.097Z,101523.32
2017-12-03T08:06:04.566Z,101526.36
2017-12-03T08:07:07.048Z,101523.05
2017-12-03T08:08:09.527Z,101521.77
2017-12-03T08:09:11.994Z,101522.77
2017-12-03T08:10:14.622Z,101524.27
2017-12-03T08:11:17.109Z,101522.34
2017-12-03T08:12:19.595Z,101524.45
2017-12-03T08:13:22.072Z,101525.05
2017-12-03T08:14:24.559Z,101525.85
2017-12-03T08:15:27.034Z,101523.72
2017-12-03T08:16:29.498Z,101522.75
2017-12-03T08:17:31.963Z,101519.17
2017-12-03T08:18:34.447Z,101517.70
2017-12-03T08:19:36.929Z,101517.27
2017-12-03T08:20:39.394Z,101519.33
2017-12-03T08:21:41.851Z,101525.39
2017-12-03T08:22:44.315Z,101515.00
2017-12-03T08:23:46.779Z,101517.56
2017-12-03T08:24:49.382Z,101522.21
2017-12-03T08:25:52.717Z,101519.47
2017-12-03T08:26:55.190Z,101519.92
2017-12-03T08:27:57.672Z,101524.28
2017-12-03T08:29:00.154Z,101522.13
2017-12-03T08:30:02.622Z,101523.38
2017-12-03T08:31:05.159Z,101518.17
2017-12-03T08:32:07.579Z,101523.42
2017-12-03T08:33:10.077Z,101533.55
2017-12-03T08:34:12.553Z,101522.87
2017-12-03T08:35:15.029Z,101526.07
2017-12-03T08:36:17.492Z,101531.93
2017-12-03T08:37:19.959Z,101529.92
2017-12-03T08:38:22.454Z,101529.98
2017-12-03T08:39:24.931Z,101526.84
2017-12-03T08:40:27.422Z,101530.50
2017-12-03T08:41:29.886Z,101530.82
2017-12-03T08:42:32.374Z,101529.49
2017-12-03T08:43:34.876Z,101537.90
2017-12-03T08:44:37.335Z,101529.40
2017-12-03T08:45:39.807Z,101533.14
2017-12-03T08:46:42.267Z,101532.25
2017-12-03T08:47:45.614Z,101530.62
2017-12-03T08:48:48.279Z,101533.42
2017-12-03T08:49:50.747Z,101531.28
2017-12-03T08:50:53.264Z,101530.66
2017-12-03T08:51:55.748Z,101533.09
2017-12-03T08:52:58.268Z,101527.84
2017-12-03T08:54:00.760Z,101521.33
2017-12-03T08:55:03.295Z,101527.67
2017-12-03T08:56:05.758Z,101526.11
2017-12-03T08:57:08.222Z,101525.20
2017-12-03T08:58:10.690Z,101522.17
2017-12-03T08:59:13.232Z,101524.61
2017-12-03T09:00:15.750Z,101525.02
2017-12-03T09:01:18.224Z,101526.43
2017-12-03T09:02:20.706Z,101522.48
2017-12-03T09:03:23.170Z,101530.03
2017-12-03T09:04:25.649Z,101524.43
2017-12-03T09:05:28.141Z,101523.48
2017-12-03T09:06:30.641Z,101525.09
2017-12-03T09:07:33.133Z,101528.37
2017-12-03T09:08:35.591Z,101523.67
2017-12-03T09:09:38.474Z,101522.48
2017-12-03T09:10:40.930Z,101529.03
2017-12-03T09:11:43.419Z,101521.89
2017-12-03T09:12:45.893Z,101524.49
2017-12-03T09:13:48.373Z,101523.30
2017-12-03T09:14:50.831Z,101523.80
2017-12-03T09:15:53.304Z,101521.80
2017-12-03T09:16:55.758Z,101525.49
2017-12-03T09:17:58.230Z,101530.50
2017-12-03T09:19:00.691Z,101523.45
2017-12-03T09:20:03.621Z,101531.41
2017-12-03T09:21:06.100Z,101530.73
2017-12-03T09:22:08.572Z,101530.03
2017-12-03T09:23:11.054Z,101530.31
2017-12-03T09:24:13.526Z,101527.94
2017-12-03T09:25:16.004Z,101525.63
2017-12-03T09:26:18.476Z,101524.87
2017-12-03T09:27:21.018Z,101525.69
2017-12-03T09:28:26.301Z,101532.42
2017-12-03T09:29:28.854Z,101527.50
2017-12-03T09:30:34.278Z,101531.01
2017-12-03T09:31:37.722Z,101525.40
2017-12-03T09:32:40.179Z,101528.81
2017-12-03T09:33:42.657Z,101523.17
2017-12-03T09:34:45.506Z,101524.95
2017-12-03T09:35:48.907Z,101528.33
2017-12-03T09:36:51.382Z,101522.72
2017-12-03T09:37:53.887Z,101516.70
2017-12-03T09:38:56.346Z,101524.70
2017-12-03T09:39:58.824Z,101520.80
2017-12-03T09:41:01.367Z,101523.83
2017-12-03T09:42:03.841Z,101525.36
2017-12-03T09:43:06.303Z,101524.91
2017-12-03T09:44:08.842Z,101526.21
2017-12-03T09:45:11.317Z,101524.31
2017-12-03T09:46:13.966Z,101525.05
2017-12-03T09:47:16.435Z,101524.21
2017-12-03T09:48:18.918Z,101520.27
2017-12-03T09:49:21.432Z,101519.58
2017-12-03T09:50:24.700Z,101520.36
2017-12-03T09:51:27.215Z,101520.16
2017-12-03T09:52:29.678Z,101522.77
2017-12-03T09:53:34.477Z,101525.50
2017-12-03T09:54:36.942Z,101523.52
2017-12-03T09:55:39.398Z,101519.23
2017-12-03T09:56:41.886Z,101519.83
2017-12-03T09:57:45.090Z,101516.72
2017-12-03T09:58:47.558Z,101522.83
2017-12-03T09:59:50.019Z,101520.42
2017-12-03T10:00:52.530Z,101523.39
2017-12-03T10:01:55.005Z,101524.77
2017-12-03T10:02:57.485Z,101523.52
2017-12-03T10:03:59.954Z,101524.08
2017-12-03T10:05:02.504Z,101526.97
2017-12-03T10:06:04.986Z,101522.52
2017-12-03T10:07:07.461Z,101523.55
2017-12-03T10:08:09.973Z,101522.30
2017-12-03T10:09:12.449Z,101521.77
2017-12-03T10:10:14.927Z,101525.72
2017-12-03T10:11:17.383Z,101532.64
2017-12-03T10:12:19.897Z,101525.40
2017-12-03T10:13:22.393Z,101530.86
2017-12-03T10:14:24.856Z,101529.09
2017-12-03T10:15:27.350Z,101530.27
2017-12-03T10:16:29.812Z,101522.75
2017-12-03T10:17:32.299Z,101525.20
2017-12-03T10:18:34.784Z,101523.05
2017-12-03T10:19:37.262Z,101532.13
2017-12-03T10:20:39.723Z,101531.41
2017-12-03T10:21:42.225Z,101526.18
2017-12-03T10:22:44.791Z,101525.39
2017-12-03T10:23:47.279Z,101523.72
2017-12-03T10:24:49.756Z,101523.16
2017-12-03T10:25:52.250Z,101525.24
2017-12-03T10:26:54.735Z,101524.72
2017-12-03T10:27:57.385Z,101523.24
2017-12-03T10:28:59.878Z,101522.13
2017-12-03T10:30:02.360Z,101520.50
2017-12-03T10:31:04.828Z,101516.59
2017-12-03T10:32:07.295Z,101519.31
2017-12-03T10:33:09.782Z,101513.36
2017-12-03T10:34:12.341Z,101521.47
2017-12-03T10:35:14.809Z,101525.67
2017-12-03T10:36:17.323Z,101518.34
2017-12-03T10:37:19.832Z,101517.03
2017-12-03T10:38:23.040Z,101516.94
2017-12-03T10:39:25.520Z,101511.98
2017-12-03T10:40:28.995Z,101509.63
2017-12-03T10:41:31.463Z,101515.66
2017-12-03T10:42:34.371Z,101506.28
2017-12-03T10:43:36.856Z,101509.16
2017-12-03T10:44:39.348Z,101503.61
2017-12-03T10:45:41.921Z,101501.06
2017-12-03T10:46:44.447Z,101499.28
2017-12-03T10:47:46.914Z,101495.28
2017-12-03T10:48:49.396Z,101498.55
2017-12-03T10:49:51.885Z,101492.62
2017-12-03T10:50:54.361Z,101492.90
2017-12-03T10:51:56.861Z,101494.83
2017-12-03T10:52:59.351Z,101489.05
2017-12-03T10:54:01.833Z,101493.89
2017-12-03T10:55:04.315Z,101494.37
2017-12-03T10:56:06.798Z,101493.44
2017-12-03T10:57:09.281Z,101491.75
2017-12-03T10:58:11.755Z,101494.29
2017-12-03T10:59:14.245Z,101488.42
2017-12-03T11:00:16.713Z,101485.48
2017-12-03T11:01:19.174Z,101488.45
2017-12-03T11:02:21.642Z,101494.91
2017-12-03T11:03:24.120Z,101489.20
2017-12-03T11:04:26.680Z,101487.37
2017-12-03T11:05:29.144Z,101483.90
2017-12-03T11:06:31.619Z,101478.30
2017-12-03T11:07:34.096Z,101475.81
2017-12-03T11:08:36.580Z,101478.86
2017-12-03T11:09:39.046Z,101479.20
2017-12-03T11:10:41.535Z,101469.57
2017-12-03T11:11:44.093Z,101471.63
2017-12-03T11:12:46.560Z,101471.85
2017-12-03T11:13:49.107Z,101469.02
2017-12-03T11:14:51.588Z,101468.95
2017-12-03T11:15:54.076Z,101467.54
2017-12-03T11:16:56.554Z,101474.53
2017-12-03T11:17:59.142Z,101470.53
2017-12-03T11:19:01.671Z,101470.75
2017-12-03T11:20:04.265Z,101471.88
2017-12-03T11:21:06.734Z,101469.56
2017-12-03T11:22:09.256Z,101472.41
2017-12-03T11:23:12.047Z,101468.18
2017-12-03T11:24:14.533Z,101469.36
2017-12-03T11:25:17.011Z,101467.08
2017-12-03T11:26:19.482Z,101463.34
2017-12-03T11:27:21.976Z,101459.38
2017-12-03T11:28:24.469Z,101462.89
2017-12-03T11:29:26.940Z,101456.03
2017-12-03T11:30:29.405Z,101460.13
2017-12-03T11:31:31.881Z,101456.98
2017-12-03T11:32:34.360Z,101456.44
2017-12-03T11:33:36.837Z,101446.91
2017-12-03T11:34:39.328Z,101451.22
2017-12-03T11:35:41.818Z,101453.86
2017-12-03T11:36:44.286Z,101451.81
2017-12-03T11:37:46.780Z,101447.92
2017-12-03T11:38:49.260Z,101446.95
2017-12-03T11:39:51.754Z,101445.70
2017-12-03T11:40:54.248Z,101440.17
2017-12-03T11:41:56.721Z,101440.70
2017-12-03T11:42:59.356Z,101438.41
2017-12-03T11:44:02.075Z,101443.28
2017-12-03T11:45:04.549Z,101445.12
2017-12-03T11:46:07.029Z,101439.15
2017-12-03T11:47:09.498Z,101441.17
2017-12-03T11:48:11.973Z,101442.64
2017-12-03T11:49:14.441Z,101440.03
2017-12-03T11:50:16.941Z,101441.19
2017-12-03T11:51:20.142Z,101441.62
2017-12-03T11:52:22.653Z,101443.34
2017-12-03T11:53:25.127Z,101440.83
2017-12-03T11:54:27.725Z,101442.47
2017-12-03T11:55:30.193Z,101441.02
2017-12-03T11:56:32.681Z,101440.94